createdAt,value
2019-05-02T00:00:29.980Z,58.60
2019-05-02T00:02:59.853Z,60.10
2019-05-02T00:05:27.448Z,60.80
2019-05-02T00:08:04.877Z,61.40
2019-05-02T00:10:28.835Z,61.00
2019-05-02T00:12:55.745Z,61.50
2019-05-02T00:15:22.565Z,61.10
2019-05-02T00:17:52.080Z,61.30
2019-05-02T00:20:25.752Z,62.30
2019-05-02T00:22:52.324Z,62.70
2019-05-02T00:25:24.738Z,63.30
2019-05-02T00:27:53.414Z,60.80
2019-05-02T00:30:25.024Z,60.30
2019-05-02T00:32:58.347Z,59.70
2019-05-02T00:35:27.082Z,60.40
2019-05-02T00:37:57.341Z,59.60
2019-05-02T00:40:25.736Z,59.30
2019-05-02T00:42:53.270Z,59.10
2019-05-02T00:45:24.076Z,59.30
2019-05-02T00:47:49.766Z,59.40
2019-05-02T00:50:16.429Z,59.80
2019-05-02T00:52:43.135Z,60.30
2019-05-02T00:55:10.291Z,60.40
2019-05-02T00:57:36.939Z,61.50
2019-05-02T01:00:03.775Z,62.10
2019-05-02T01:02:30.628Z,62.10
2019-05-02T01:04:59.282Z,61.70
2019-05-02T01:07:26.920Z,60.50
2019-05-02T01:09:54.465Z,60.60
2019-05-02T01:12:26.564Z,61.00
2019-05-02T01:14:49.775Z,60.90
2019-05-02T01:17:16.432Z,60.30
2019-05-02T01:19:47.362Z,62.90
2019-05-02T01:22:16.002Z,64.00
2019-05-02T01:24:41.685Z,63.60
2019-05-02T01:27:09.172Z,64.70
2019-05-02T01:29:35.743Z,64.10
2019-05-02T01:32:02.633Z,65.50
2019-05-02T01:34:29.522Z,64.70
2019-05-02T01:36:56.399Z,64.40
2019-05-02T01:39:23.295Z,64.40
2019-05-02T01:41:50.916Z,63.90
2019-05-02T01:44:17.691Z,65.60
2019-05-02T01:46:44.341Z,67.20
2019-05-02T01:49:10.938Z,67.70
2019-05-02T01:51:42.049Z,68.30
2019-05-02T01:54:09.987Z,68.50
2019-05-02T01:56:37.112Z,70.20
2019-05-02T01:59:03.724Z,70.80
2019-05-02T02:01:30.342Z,71.00
2019-05-02T02:03:57.317Z,71.40
2019-05-02T02:06:23.987Z,71.90
2019-05-02T02:08:50.864Z,71.80
2019-05-02T02:11:17.469Z,73.00
2019-05-02T02:13:44.092Z,74.50
2019-05-02T02:16:11.106Z,74.00
2019-05-02T02:18:37.865Z,74.10
2019-05-02T02:21:04.592Z,74.90
2019-05-02T02:23:31.356Z,75.60
2019-05-02T02:25:58.904Z,75.40
2019-05-02T02:28:25.517Z,74.90
2019-05-02T02:30:57.687Z,74.00
2019-05-02T02:33:21.649Z,73.60
2019-05-02T02:35:50.329Z,72.90
2019-05-02T02:38:16.658Z,75.10
2019-05-02T02:40:43.249Z,75.50
2019-05-02T02:43:32.248Z,77.80
2019-05-02T02:45:39.141Z,78.50
2019-05-02T02:48:05.742Z,76.90
2019-05-02T02:50:42.853Z,78.40
2019-05-02T02:53:05.434Z,78.70
2019-05-02T02:55:32.342Z,81.10
2019-05-02T02:58:04.677Z,81.40
2019-05-02T03:00:28.326Z,81.50
2019-05-02T03:02:57.367Z,80.20
2019-05-02T03:05:25.863Z,79.90
2019-05-02T03:07:52.578Z,81.10
2019-05-02T03:10:22.147Z,80.00
2019-05-02T03:12:48.477Z,82.00
2019-05-02T03:15:21.204Z,83.20
2019-05-02T03:17:47.298Z,81.80
2019-05-02T03:20:16.919Z,81.10
2019-05-02T03:22:43.701Z,83.10
2019-05-02T03:25:18.002Z,82.50
2019-05-02T03:27:46.819Z,83.20
2019-05-02T03:30:29.570Z,87.40
2019-05-02T03:33:03.012Z,87.60
2019-05-02T03:35:19.701Z,88.90
2019-05-02T03:37:51.385Z,86.90
2019-05-02T03:40:21.953Z,85.80
2019-05-02T03:42:49.503Z,84.80
2019-05-02T03:45:17.792Z,84.20
2019-05-02T03:47:48.698Z,83.10
2019-05-02T03:50:31.683Z,83.90
2019-05-02T03:52:48.552Z,83.80
2019-05-02T03:55:23.619Z,84.20
2019-05-02T03:57:45.478Z,85.10
2019-05-02T04:00:20.576Z,87.00
2019-05-02T04:02:46.836Z,91.70
2019-05-02T04:05:19.619Z,90.60
2019-05-02T04:07:46.193Z,91.90
2019-05-02T04:10:19.305Z,92.50
2019-05-02T04:12:45.248Z,91.50
2019-05-02T04:15:12.130Z,90.90
2019-05-02T04:17:40.912Z,91.00
2019-05-02T04:20:10.204Z,91.00
2019-05-02T04:22:42.609Z,91.10
2019-05-02T04:25:06.412Z,90.60
2019-05-02T04:27:34.202Z,87.60
2019-05-02T04:30:09.802Z,85.90
2019-05-02T04:32:32.035Z,86.10
2019-05-02T04:35:00.040Z,87.20
2019-05-02T04:37:26.655Z,87.00
2019-05-02T04:40:00.709Z,87.70
2019-05-02T04:42:24.144Z,87.20
2019-05-02T04:45:14.129Z,88.10
2019-05-02T04:47:22.346Z,87.00
2019-05-02T04:49:52.039Z,87.30
2019-05-02T04:52:38.465Z,86.00
2019-05-02T04:55:17.101Z,86.70
2019-05-02T04:57:41.084Z,86.20
2019-05-02T05:00:08.575Z,84.60
2019-05-02T05:02:36.469Z,85.40
2019-05-02T05:05:02.938Z,83.20
2019-05-02T05:07:40.052Z,81.50
2019-05-02T05:10:02.999Z,80.80
2019-05-02T05:12:32.472Z,78.40
2019-05-02T05:15:00.482Z,78.80
2019-05-02T05:17:32.479Z,77.30
2019-05-02T05:20:00.169Z,76.50
2019-05-02T05:22:29.261Z,72.80
2019-05-02T05:24:58.101Z,77.20
2019-05-02T05:27:24.487Z,75.30
2019-05-02T05:29:53.677Z,72.80
2019-05-02T05:32:19.709Z,72.40
2019-05-02T05:34:47.781Z,72.60
2019-05-02T05:37:17.302Z,72.20
2019-05-02T05:39:50.904Z,70.70
2019-05-02T05:42:14.719Z,70.90
2019-05-02T05:44:41.320Z,68.20
2019-05-02T05:47:12.248Z,66.30
2019-05-02T05:49:40.407Z,66.70
2019-05-02T05:52:08.081Z,68.00
2019-05-02T05:54:40.478Z,69.50
2019-05-02T05:57:03.476Z,66.70
2019-05-02T05:59:32.061Z,66.70
2019-05-02T06:02:05.307Z,66.80
2019-05-02T06:04:33.129Z,65.80
2019-05-02T06:06:59.547Z,65.10
2019-05-02T06:09:31.084Z,63.80
2019-05-02T06:11:58.828Z,65.10
2019-05-02T06:14:27.861Z,62.60
2019-05-02T06:16:54.937Z,60.60
2019-05-02T06:19:23.899Z,60.70
2019-05-02T06:21:54.856Z,63.20
2019-05-02T06:24:22.468Z,59.80
2019-05-02T06:26:51.720Z,60.00
2019-05-02T06:29:20.597Z,60.10
2019-05-02T06:31:50.654Z,62.50
2019-05-02T06:34:18.233Z,58.40
2019-05-02T06:36:48.504Z,60.80
2019-05-02T06:39:15.368Z,60.40
2019-05-02T06:41:45.947Z,59.40
2019-05-02T06:44:18.651Z,60.90
2019-05-02T06:46:46.924Z,60.00
2019-05-02T06:49:17.062Z,59.80
2019-05-02T06:51:45.702Z,59.10
2019-05-02T06:54:18.061Z,61.40
2019-05-02T06:56:47.862Z,60.10
2019-05-02T06:59:18.473Z,60.30
2019-05-02T07:01:43.115Z,60.40
2019-05-02T07:04:10.244Z,58.60
2019-05-02T07:06:55.982Z,58.50
2019-05-02T07:09:09.067Z,60.60
2019-05-02T07:11:40.945Z,59.10
2019-05-02T07:14:13.417Z,57.90
2019-05-02T07:16:38.829Z,58.90
2019-05-02T07:19:04.439Z,59.00
2019-05-02T07:21:33.123Z,58.20
2019-05-02T07:24:03.421Z,58.80
2019-05-02T07:26:34.901Z,58.70
2019-05-02T07:29:07.701Z,58.20
2019-05-02T07:31:36.633Z,56.70
2019-05-02T07:34:08.044Z,56.40
2019-05-02T07:36:38.360Z,55.40
2019-05-02T07:39:07.593Z,56.40
2019-05-02T07:41:37.250Z,57.80
2019-05-02T07:44:06.075Z,55.70
2019-05-02T07:46:51.605Z,55.70
2019-05-02T07:49:12.891Z,57.10
2019-05-02T07:51:44.631Z,55.80
2019-05-02T07:54:13.625Z,56.00
2019-05-02T07:56:48.620Z,56.60
2019-05-02T07:59:18.705Z,55.50
2019-05-02T08:01:44.914Z,54.80
2019-05-02T08:04:18.067Z,53.70
2019-05-02T08:06:46.445Z,53.10
2019-05-02T08:09:13.450Z,52.50
2019-05-02T08:11:45.979Z,51.00
2019-05-02T08:14:18.915Z,52.50
2019-05-02T08:16:45.848Z,52.20
2019-05-02T08:19:17.110Z,49.00
2019-05-02T08:21:43.925Z,45.80
2019-05-02T08:24:12.047Z,45.30
2019-05-02T08:26:39.457Z,47.20
2019-05-02T08:29:06.533Z,46.10
2019-05-02T08:31:36.370Z,46.40
2019-05-02T08:34:14.398Z,48.50
2019-05-02T08:36:37.090Z,42.80
2019-05-02T08:39:05.974Z,42.60
2019-05-02T08:41:36.650Z,44.10
2019-05-02T08:44:03.984Z,44.30
2019-05-02T08:49:23.906Z,43.30
2019-05-02T08:51:55.972Z,44.20
2019-05-02T08:54:23.255Z,44.90
2019-05-02T08:56:58.721Z,42.70
2019-05-02T08:59:26.077Z,43.00
2019-05-02T09:01:53.871Z,43.30
2019-05-02T09:07:12.527Z,40.30
2019-05-02T09:09:40.498Z,39.70
2019-05-02T09:12:15.086Z,40.00
2019-05-02T09:14:45.299Z,39.20
2019-05-02T09:17:16.727Z,39.20
2019-05-02T09:19:58.683Z,38.30
2019-05-02T09:22:16.775Z,40.90
2019-05-02T09:24:45.355Z,40.60
2019-05-02T09:27:12.442Z,39.70
2019-05-02T09:29:49.078Z,39.70
2019-05-02T09:32:22.839Z,39.90
2019-05-02T09:34:56.581Z,40.30
2019-05-02T09:37:27.393Z,42.30
2019-05-02T09:39:54.325Z,42.90
2019-05-02T09:42:24.782Z,41.60
2019-05-02T09:44:56.854Z,43.00
2019-05-02T09:47:27.461Z,43.30
2019-05-02T09:49:53.199Z,41.40
2019-05-02T09:52:22.991Z,41.40
2019-05-02T09:54:51.854Z,41.20
2019-05-02T09:57:22.616Z,39.80
2019-05-02T09:59:55.797Z,41.30
2019-05-02T10:02:22.814Z,40.20
2019-05-02T10:04:52.946Z,44.40
2019-05-02T10:07:27.001Z,41.80
2019-05-02T10:10:02.522Z,40.60
2019-05-02T10:12:25.459Z,42.60
2019-05-02T10:14:52.739Z,40.90
2019-05-02T10:17:23.248Z,43.40
2019-05-02T10:19:57.057Z,41.50
2019-05-02T10:22:26.685Z,40.20
2019-05-02T10:24:55.779Z,41.80
2019-05-02T10:27:29.136Z,42.50
2019-05-02T10:30:08.097Z,41.70
2019-05-02T10:32:32.386Z,39.70
2019-05-02T10:35:02.106Z,42.00
2019-05-02T10:37:37.677Z,40.40
2019-05-02T10:39:59.975Z,37.90
2019-05-02T10:42:26.895Z,39.60
2019-05-02T10:44:56.050Z,41.50
2019-05-02T10:47:22.736Z,43.40
2019-05-02T10:49:49.610Z,38.60
2019-05-02T10:52:21.571Z,39.70
2019-05-02T10:54:49.661Z,36.70
2019-05-02T10:57:21.867Z,37.40
2019-05-02T10:59:48.624Z,37.80
2019-05-02T11:02:15.482Z,35.80
2019-05-02T11:04:43.792Z,36.80
2019-05-02T11:07:21.915Z,35.30
2019-05-02T11:09:42.272Z,35.70
2019-05-02T11:12:09.439Z,35.90
2019-05-02T11:14:42.082Z,35.60
2019-05-02T11:17:15.945Z,37.10
2019-05-02T11:19:42.001Z,36.50
2019-05-02T11:22:12.195Z,34.90
2019-05-02T11:24:38.960Z,36.10
2019-05-02T11:27:08.188Z,34.80
2019-05-02T11:29:36.642Z,35.80
2019-05-02T11:32:03.548Z,36.30
2019-05-02T11:34:37.696Z,36.10
2019-05-02T11:37:05.065Z,36.40
2019-05-02T11:39:42.753Z,37.30
2019-05-02T11:42:04.638Z,34.60
2019-05-02T11:44:33.753Z,35.00
2019-05-02T11:47:03.792Z,36.70
2019-05-02T11:49:31.956Z,38.60
2019-05-02T11:52:03.779Z,36.70
2019-05-02T11:54:34.050Z,38.80
2019-05-02T11:57:03.918Z,36.70
2019-05-02T11:59:33.019Z,33.50
2019-05-02T12:02:02.705Z,33.60
2019-05-02T12:04:32.464Z,34.10
2019-05-02T12:07:01.474Z,34.10
2019-05-02T12:09:31.829Z,34.70
2019-05-02T12:12:05.506Z,33.20
2019-05-02T12:14:36.401Z,36.40
2019-05-02T12:17:03.311Z,35.10
2019-05-02T12:19:33.885Z,38.00
2019-05-02T12:22:02.612Z,35.40
2019-05-02T12:24:31.895Z,34.10
2019-05-02T12:26:59.940Z,37.50
2019-05-02T12:29:30.104Z,35.60
2019-05-02T12:31:56.993Z,35.20
2019-05-02T12:34:26.184Z,35.50
2019-05-02T12:36:55.481Z,37.00
2019-05-02T12:39:22.336Z,33.10
2019-05-02T12:41:49.388Z,34.50
2019-05-02T12:44:16.813Z,32.90
2019-05-02T12:46:43.654Z,37.20
2019-05-02T12:49:22.644Z,33.20
2019-05-02T12:51:39.183Z,35.90
2019-05-02T12:54:06.064Z,33.00
2019-05-02T12:56:32.994Z,32.90
2019-05-02T12:59:02.161Z,32.40
2019-05-02T13:01:28.714Z,32.80
2019-05-02T13:03:55.574Z,33.30
2019-05-02T13:06:22.753Z,35.50
2019-05-02T13:08:49.348Z,31.30
2019-05-02T13:11:16.201Z,34.20
2019-05-02T13:13:43.680Z,34.80
2019-05-02T13:16:12.195Z,33.30
2019-05-02T13:18:39.271Z,34.80
2019-05-02T13:21:08.110Z,34.00
2019-05-02T13:23:37.178Z,34.10
2019-05-02T13:26:10.057Z,35.50
2019-05-02T13:28:32.462Z,35.20
2019-05-02T13:30:59.430Z,32.60
2019-05-02T13:33:27.380Z,33.50
2019-05-02T13:35:54.957Z,33.20
2019-05-02T13:38:22.431Z,30.80
2019-05-02T13:40:49.391Z,32.80
2019-05-02T13:43:18.015Z,31.10
2019-05-02T13:45:45.644Z,32.10
2019-05-02T13:48:12.887Z,32.30
2019-05-02T13:50:42.271Z,35.30
2019-05-02T13:53:12.145Z,34.00
2019-05-02T13:55:39.252Z,34.10
2019-05-02T13:58:11.372Z,33.30
2019-05-02T14:00:36.370Z,33.70
2019-05-02T14:03:03.882Z,33.20
2019-05-02T14:05:32.979Z,33.20
2019-05-02T14:08:01.821Z,34.60
2019-05-02T14:10:33.754Z,33.20
2019-05-02T14:12:58.387Z,32.30
2019-05-02T14:15:25.389Z,34.60
2019-05-02T14:17:52.616Z,34.70
2019-05-02T14:20:22.190Z,33.20
2019-05-02T14:22:48.526Z,35.00
2019-05-02T14:25:18.015Z,33.60
2019-05-02T14:27:46.921Z,34.90
2019-05-02T14:30:15.038Z,33.10
2019-05-02T14:32:44.465Z,33.50
2019-05-02T14:35:12.571Z,32.30
2019-05-02T14:37:42.094Z,32.60
2019-05-02T14:40:11.194Z,30.00
2019-05-02T14:42:41.925Z,29.90
2019-05-02T14:45:24.136Z,30.20
2019-05-02T14:47:37.490Z,31.10
2019-05-02T14:50:05.255Z,29.70
2019-05-02T14:52:32.680Z,29.70
2019-05-02T14:54:59.609Z,30.10
2019-05-02T14:57:27.304Z,31.00
2019-05-02T14:59:59.197Z,32.60
2019-05-02T15:02:23.038Z,32.50
2019-05-02T15:04:52.299Z,31.90
2019-05-02T15:07:22.957Z,31.00
2019-05-02T15:09:47.862Z,31.50
2019-05-02T15:12:18.897Z,32.40
2019-05-02T15:14:43.328Z,31.80
2019-05-02T15:17:11.983Z,32.10
2019-05-02T15:19:38.530Z,32.80
2019-05-02T15:22:05.310Z,33.20
2019-05-02T15:24:36.141Z,30.90
2019-05-02T15:27:03.913Z,31.80
2019-05-02T15:29:29.373Z,32.30
2019-05-02T15:31:57.889Z,31.50
2019-05-02T15:34:26.191Z,32.10
2019-05-02T15:36:53.059Z,30.80
2019-05-02T15:41:48.824Z,32.10
2019-05-02T15:44:18.956Z,32.90
2019-05-02T15:46:44.378Z,31.40
2019-05-02T15:49:12.289Z,31.30
2019-05-02T15:51:43.688Z,30.80
2019-05-02T15:54:09.009Z,30.40
2019-05-02T15:56:36.050Z,31.40
2019-05-02T15:59:06.201Z,33.00
2019-05-02T16:01:32.091Z,31.90
2019-05-02T16:03:59.220Z,32.10
2019-05-02T16:06:31.679Z,31.70
2019-05-02T16:08:54.772Z,32.00
2019-05-02T16:11:22.990Z,32.20
2019-05-02T16:13:52.724Z,31.80
2019-05-02T16:16:18.608Z,30.70
2019-05-02T16:18:45.520Z,30.20
2019-05-02T16:21:12.248Z,31.80
2019-05-02T16:23:39.113Z,30.80
2019-05-02T16:26:08.727Z,33.00
2019-05-02T16:28:36.967Z,32.30
2019-05-02T16:31:03.183Z,31.60
2019-05-02T16:33:31.801Z,34.10
2019-05-02T16:35:59.471Z,35.30
2019-05-02T16:38:26.872Z,35.40
2019-05-02T16:40:54.710Z,36.10
2019-05-02T16:43:22.279Z,37.60
2019-05-02T16:45:52.473Z,38.50
2019-05-02T16:48:19.468Z,38.70
2019-05-02T16:50:46.356Z,39.50
2019-05-02T16:53:17.190Z,38.90
2019-05-02T16:55:43.681Z,38.40
2019-05-02T16:58:11.843Z,38.80
2019-05-02T17:00:42.523Z,38.40
2019-05-02T17:03:07.750Z,38.40
2019-05-02T17:05:34.612Z,39.60
2019-05-02T17:08:02.311Z,39.90
2019-05-02T17:10:29.451Z,39.60
2019-05-02T17:13:12.640Z,40.10
2019-05-02T17:20:46.949Z,39.40
2019-05-02T17:23:13.837Z,40.30
2019-05-02T17:25:41.615Z,39.30
2019-05-02T17:28:11.223Z,37.10
2019-05-02T17:30:40.416Z,38.20
2019-05-02T17:33:07.124Z,39.20
2019-05-02T17:35:35.127Z,39.30
2019-05-02T17:38:02.535Z,39.60
2019-05-02T17:40:29.556Z,37.90
2019-05-02T17:42:57.062Z,38.20
2019-05-02T17:45:26.254Z,37.70
2019-05-02T17:47:53.200Z,38.10
2019-05-02T17:50:21.991Z,37.70
2019-05-02T17:52:48.677Z,38.20
2019-05-02T17:55:15.655Z,38.10
2019-05-02T17:57:42.257Z,38.80
2019-05-02T18:00:13.134Z,38.80
2019-05-02T18:02:38.031Z,37.90
2019-05-02T18:05:04.941Z,38.10
2019-05-02T18:07:36.034Z,38.50
2019-05-02T18:10:07.858Z,38.50
2019-05-02T18:12:30.056Z,38.50
2019-05-02T18:14:59.058Z,39.60
2019-05-02T18:17:27.802Z,38.70
2019-05-02T18:19:56.733Z,39.60
2019-05-02T18:22:26.406Z,38.90
2019-05-02T18:24:52.729Z,38.70
2019-05-02T18:27:19.681Z,38.70
2019-05-02T18:29:46.653Z,39.50
2019-05-02T18:32:17.514Z,39.20
2019-05-02T18:34:41.993Z,39.00
2019-05-02T18:37:08.833Z,39.00
2019-05-02T18:39:42.605Z,38.70
2019-05-02T18:44:42.042Z,40.70
2019-05-02T18:47:12.543Z,40.40
2019-05-02T18:49:41.877Z,41.70
2019-05-02T18:52:09.303Z,44.50
2019-05-02T18:54:38.660Z,45.20
2019-05-02T18:57:04.805Z,45.10
2019-05-02T18:59:32.079Z,45.90
2019-05-02T19:01:59.828Z,45.30
2019-05-02T19:04:34.855Z,45.90
2019-05-02T19:06:55.120Z,46.10
2019-05-02T19:09:29.836Z,46.80
2019-05-02T19:12:04.802Z,47.70
2019-05-02T19:14:25.977Z,47.90
2019-05-02T19:16:52.663Z,48.00
2019-05-02T19:19:22.526Z,47.80
2019-05-02T19:21:49.309Z,48.10
2019-05-02T19:24:16.166Z,48.20
2019-05-02T19:26:49.250Z,47.40
2019-05-02T19:29:17.101Z,47.40
2019-05-02T19:31:46.150Z,47.60
2019-05-02T19:34:16.951Z,47.40
2019-05-02T19:36:44.382Z,47.80
2019-05-02T19:39:11.807Z,48.80
2019-05-02T19:41:47.740Z,49.60
2019-05-02T19:44:15.456Z,49.70
2019-05-02T19:46:45.992Z,49.00
2019-05-02T19:49:16.202Z,49.60
2019-05-02T19:51:45.073Z,49.90
2019-05-02T19:54:16.376Z,50.10
2019-05-02T19:56:47.474Z,49.70
2019-05-02T19:59:16.699Z,50.40
2019-05-02T20:01:45.973Z,50.70
2019-05-02T20:04:15.908Z,50.40
2019-05-02T20:06:45.163Z,50.00
2019-05-02T20:09:22.968Z,49.40
2019-05-02T20:11:53.809Z,50.90
2019-05-02T20:14:22.047Z,50.00
2019-05-02T20:16:49.734Z,50.50
2019-05-02T20:19:17.280Z,50.40
2019-05-02T20:21:45.265Z,50.50
2019-05-02T20:24:17.481Z,50.60
2019-05-02T20:26:41.756Z,50.00
2019-05-02T20:29:08.834Z,50.90
2019-05-02T20:31:35.475Z,50.10
2019-05-02T20:34:03.252Z,50.60
2019-05-02T20:36:32.102Z,51.00
2019-05-02T20:38:59.066Z,50.40
2019-05-02T20:41:27.173Z,51.20
2019-05-02T20:43:53.743Z,51.10
2019-05-02T20:46:22.092Z,51.00
2019-05-02T20:48:49.212Z,51.70
2019-05-02T20:51:16.338Z,51.70
2019-05-02T20:53:42.953Z,51.40
2019-05-02T20:56:09.737Z,51.60
2019-05-02T20:58:36.485Z,52.00
2019-05-02T21:01:08.501Z,52.50
2019-05-02T21:03:32.115Z,52.70
2019-05-02T21:05:59.134Z,54.10
2019-05-02T21:08:25.817Z,54.10
2019-05-02T21:10:53.235Z,53.80
2019-05-02T21:13:21.979Z,54.60
2019-05-02T21:15:48.800Z,53.80
2019-05-02T21:18:15.415Z,53.20
2019-05-02T21:20:42.400Z,52.90
2019-05-02T21:23:09.068Z,53.20
2019-05-02T21:25:35.700Z,52.40
2019-05-02T21:28:02.846Z,52.50
2019-05-02T21:30:29.512Z,53.90
2019-05-02T21:32:56.499Z,53.30
2019-05-02T21:35:23.316Z,53.40
2019-05-02T21:37:50.168Z,52.60
2019-05-02T21:40:17.021Z,53.60
2019-05-02T21:42:43.710Z,53.60
2019-05-02T21:45:14.038Z,54.20
2019-05-02T21:50:29.555Z,54.30
2019-05-02T21:52:56.178Z,53.90
2019-05-02T21:55:23.148Z,54.30
2019-05-02T21:57:49.803Z,53.40
2019-05-02T22:00:16.403Z,52.40
2019-05-02T22:02:43.006Z,52.50
2019-05-02T22:05:10.301Z,51.00
2019-05-02T22:07:36.927Z,51.70
2019-05-02T22:10:03.537Z,51.00
2019-05-02T22:12:31.755Z,50.70
2019-05-02T22:14:58.698Z,51.60
2019-05-02T22:17:26.111Z,49.90
2019-05-02T22:19:53.195Z,48.00
2019-05-02T22:22:20.074Z,48.30
2019-05-02T22:24:47.016Z,47.90
2019-05-02T22:27:14.049Z,47.20
2019-05-02T22:29:42.903Z,47.20
2019-05-02T22:32:09.269Z,46.90
2019-05-02T22:34:35.958Z,46.70
2019-05-02T22:37:02.885Z,47.30
2019-05-02T22:39:32.059Z,46.80
2019-05-02T22:41:58.837Z,48.90
2019-05-02T22:44:25.825Z,49.30
2019-05-02T22:46:55.212Z,48.50
2019-05-02T22:49:26.256Z,49.30
2019-05-02T22:51:55.779Z,48.90
2019-05-02T22:54:30.352Z,49.20
2019-05-02T22:56:55.743Z,49.80
2019-05-02T22:59:23.991Z,49.10
2019-05-02T23:01:53.299Z,49.70
2019-05-02T23:04:24.100Z,48.80
2019-05-02T23:06:52.739Z,49.10
2019-05-02T23:09:24.331Z,50.40
2019-05-02T23:11:54.658Z,49.80
2019-05-02T23:14:22.306Z,50.20
2019-05-02T23:16:53.125Z,50.20
2019-05-02T23:19:23.442Z,52.50
2019-05-02T23:21:54.149Z,51.90
2019-05-02T23:24:35.983Z,51.70
2019-05-02T23:26:55.448Z,52.80
2019-05-02T23:29:23.429Z,53.60
2019-05-02T23:31:51.779Z,53.90
2019-05-02T23:34:27.016Z,53.80
2019-05-02T23:36:54.786Z,53.70
2019-05-02T23:39:22.461Z,54.20
2019-05-02T23:41:52.466Z,53.90
2019-05-02T23:44:25.721Z,53.10
2019-05-02T23:46:54.964Z,54.00
2019-05-02T23:49:25.645Z,53.20
2019-05-02T23:52:05.970Z,53.80
2019-05-02T23:54:33.029Z,54.60
2019-05-02T23:56:59.661Z,54.10
2019-05-02T23:59:28.742Z,54.50
